Home   Weather   Sweden   Jönköping   Past weeks
Flag for Sweden

Past Weather in Jönköping, Sweden — Yesterday and Last 2 Weeks

Currently: 52 °F. Scattered clouds. (Weather station: Jonkoping Flygplats, Sweden). See more current weather

Past Weather in Jönköping — Graph

°F

Jönköping Temperature Yesterday

Maximum temperature yesterday: 63 °F (at 2:20 pm)
Minimum temperature yesterday: 43 °F (at 4:50 am)
Average temperature yesterday: 55 °F

High & Low Weather Summary for the Past Weeks

 TemperatureHumidityPressure
High68 °F (Jun 4, 3:50 pm)100% (Jun 5, 11:20 am)29.95 "Hg (Jun 5, 11:20 am)
Low37 °F (Jun 7, 4:20 am)40% (Jun 4, 7:20 pm)29.33 "Hg (Jun 10, 6:20 am)
Average53 °F84%29.75 "Hg
* Reported Jun 4 6:20 am — Jun 19 6:20 am, Jönköping. Weather by CustomWeather, © 2024

Note: Actual official high and low records may vary slightly from our data, if they occured in-between our weather recording intervals... More about our weather records

Jönköping Weather History for the Previous 24 Hours

Scroll right to see more
 ConditionsComfort  
Time TempWeatherWind HumidityBarometerVisibility
6:20 am
Wed, Jun 19
52 °FScattered clouds.12 mph94%29.80 "HgN/A
5:50 am50 °FSunny.13 mph100%29.80 "Hg10 mi
5:20 am50 °FClear.9 mph100%29.80 "HgN/A
4:50 am48 °FClear.9 mph100%29.80 "HgN/A
4:20 am48 °FClear.9 mph100%29.80 "HgN/A
3:50 am48 °FPassing clouds.7 mph100%29.80 "HgN/A
3:20 am48 °FClear.6 mph100%29.80 "HgN/A
2:50 am48 °FClear.7 mph100%29.83 "HgN/A
2:20 am48 °FClear.8 mph100%29.83 "HgN/A
1:50 am50 °FClear.7 mph94%29.83 "Hg10 mi
1:20 am52 °FClear.7 mph94%29.83 "Hg10 mi
12:50 am52 °FPassing clouds.7 mph94%29.86 "HgN/A
12:20 am52 °FClear.8 mph94%29.86 "Hg10 mi
11:50 pm
Tue, Jun 18
52 °FPassing clouds.6 mph94%29.86 "HgN/A
11:20 pm54 °FPassing clouds.6 mph88%29.86 "HgN/A
10:50 pm52 °FPassing clouds.6 mph88%29.86 "HgN/A
10:20 pm54 °FClear.7 mph82%29.86 "Hg10 mi
9:50 pm55 °FSunny.8 mph77%29.86 "Hg10 mi
9:20 pm57 °FPassing clouds.7 mph77%29.86 "HgN/A
8:50 pm57 °FPassing clouds.9 mph77%29.86 "HgN/A
8:20 pm59 °FPassing clouds.9 mph72%29.86 "HgN/A
7:50 pm59 °FScattered clouds.9 mph72%29.86 "HgN/A
7:20 pm61 °FScattered clouds.13 mph68%29.89 "HgN/A
6:50 pm61 °FPassing clouds.13 mph68%29.89 "HgN/A
6:20 pm61 °FPassing clouds.14 mph68%29.89 "HgN/A
5:50 pm61 °FPassing clouds.16 mph68%29.89 "HgN/A
5:20 pm61 °FPassing clouds.16 mph68%29.89 "HgN/A
4:50 pm63 °FBroken clouds.16 mph59%29.89 "HgN/A
3:50 pm63 °FPartly sunny.14 mph59%29.89 "HgN/A
2:20 pm63 °FScattered clouds.14 mph64%29.89 "HgN/A
12:50 pm59 °FPartly sunny.12 mph77%29.89 "HgN/A
12:20 pm61 °FPartly sunny.16 mph83%29.89 "HgN/A
11:20 am57 °FRain showers. Partly sunny.13 mph94%29.89 "HgN/A
10:20 am61 °FPartly sunny.14 mph77%29.86 "HgN/A
9:20 am59 °FScattered clouds.10 mph88%29.86 "HgN/A
8:50 am57 °FPartly sunny.13 mph94%29.86 "HgN/A
8:20 am57 °FPartly sunny.12 mph94%29.86 "HgN/A
7:20 am57 °FSunny.10 mph94%29.86 "Hg10 mi
Weather by CustomWeather, © 2024

See weather overview